Time;durP1;ratioP1;P1;durP2;ratioP2;P2;SDS_P1;SDS_P2;PMS_P1;PMS_P2;Temp;Humidity;BMP_temperature;BMP_pressure;BME280_temperature;BME280_humidity;BME280_pressure;Samples;Min_cycle;Max_cycle;Signal;HPM_P1;HPM_P2
2024/04/06 00:02:20;;;;;;;3.93;1.90;;;14.30;1.00;;;14.34;100.00;98712.06;4773527;29;20823;-72
2024/04/06 00:04:47;;;;;;;2.53;1.50;;;14.30;1.00;;;14.41;100.00;98715.94;4780329;29;20207;-73
2024/04/06 00:07:14;;;;;;;2.93;1.60;;;14.40;1.00;;;14.46;100.00;98721.69;4779676;29;20234;-72
2024/04/06 00:09:40;;;;;;;2.33;1.80;;;14.50;1.00;;;14.55;100.00;98722.81;4783016;29;20207;-72
2024/04/06 00:12:07;;;;;;;1.93;1.23;;;14.60;1.00;;;14.56;100.00;98724.50;4779880;29;20232;-72
2024/04/06 00:14:34;;;;;;;2.43;1.40;;;14.60;1.00;;;14.59;100.00;98725.09;4779788;29;20204;-72
2024/04/06 00:17:00;;;;;;;4.23;1.40;;;14.60;1.00;;;14.65;100.00;98729.09;4782019;29;20785;-72
2024/04/06 00:19:29;;;;;;;4.23;1.30;;;14.70;1.00;;;14.61;100.00;98732.84;4778920;29;20216;-72
2024/04/06 00:21:55;;;;;;;1.80;1.13;;;14.70;1.00;;;14.62;100.00;98729.28;4783100;29;20692;-72
2024/04/06 00:24:23;;;;;;;2.30;1.13;;;14.70;1.00;;;14.65;100.00;98739.53;4789521;29;20218;-72
2024/04/06 00:26:49;;;;;;;1.87;1.23;;;14.70;1.00;;;14.66;100.00;98738.56;4790449;29;20218;-73
2024/04/06 00:29:16;;;;;;;2.97;1.23;;;14.70;1.00;;;14.81;100.00;98731.41;4783971;29;20273;-72
2024/04/06 00:31:42;;;;;;;1.77;1.30;;;14.80;1.00;;;14.78;100.00;98732.50;4780456;29;20219;-72
2024/04/06 00:34:09;;;;;;;3.27;1.50;;;14.80;1.00;;;14.78;100.00;98732.50;4794707;29;20234;-70
2024/04/06 00:36:37;;;;;;;3.43;1.90;;;14.80;1.00;;;14.79;100.00;98728.94;4787141;29;20203;-72
2024/04/06 00:39:04;;;;;;;2.23;1.43;;;14.90;1.00;;;14.74;100.00;98731.03;4777531;29;20208;-72
2024/04/06 00:41:30;;;;;;;3.93;1.20;;;14.80;1.00;;;14.76;100.00;98737.00;4782839;29;21515;-72
2024/04/06 00:43:57;;;;;;;3.17;1.37;;;14.80;1.00;;;14.73;100.00;98734.56;4780239;29;20781;-72
2024/04/06 00:46:23;;;;;;;1.37;1.10;;;14.80;1.00;;;14.75;100.00;98743.16;4774934;29;20203;-72
2024/04/06 00:48:52;;;;;;;4.40;1.30;;;14.80;1.00;;;14.83;100.00;98748.69;4784925;29;20227;-72
2024/04/06 00:51:18;;;;;;;2.27;1.27;;;14.90;1.00;;;14.79;100.00;98751.66;4775330;29;20881;-72
2024/04/06 00:53:47;;;;;;;5.03;1.37;;;14.90;1.00;;;14.83;100.00;98750.47;4780722;29;20231;-72
2024/04/06 00:56:13;;;;;;;2.10;1.20;;;14.90;1.00;;;14.80;100.00;98755.91;4785254;29;20587;-72
2024/04/06 00:58:42;;;;;;;3.73;1.20;;;14.90;1.00;;;14.77;100.00;98756.16;4794032;29;20200;-72
2024/04/06 01:01:08;;;;;;;1.50;1.30;;;14.80;1.00;;;14.78;100.00;98766.50;4779621;29;20215;-72
2024/04/06 01:03:35;;;;;;;1.53;1.07;;;14.80;1.00;;;14.77;100.00;98777.06;4779500;29;20230;-72
2024/04/06 01:06:01;;;;;;;3.60;1.20;;;14.80;1.00;;;14.79;100.00;98778.66;4777017;29;20235;-72
2024/04/06 01:08:30;;;;;;;4.20;1.60;;;14.80;1.00;;;14.81;100.00;98779.34;4784382;29;20238;-72
2024/04/06 01:10:57;;;;;;;3.27;1.30;;;14.90;1.00;;;14.73;100.00;98780.88;4781945;29;20211;-72
2024/04/06 01:13:24;;;;;;;3.23;1.20;;;14.80;1.00;;;14.70;100.00;98791.53;4775030;29;20739;-72
2024/04/06 01:15:50;;;;;;;5.33;1.70;;;14.80;1.00;;;14.72;100.00;98785.25;4783520;29;20199;-72
2024/04/06 01:18:17;;;;;;;2.60;1.60;;;14.80;1.00;;;14.62;100.00;98786.84;4784063;29;20209;-72
2024/04/06 01:20:47;;;;;;;4.90;1.30;;;14.70;1.00;;;14.60;100.00;98780.88;4785902;29;20214;-72
2024/04/06 01:23:15;;;;;;;1.93;1.13;;;14.70;1.00;;;14.52;100.00;98770.94;4776292;29;20231;-72
2024/04/06 01:25:44;;;;;;;2.03;1.00;;;14.60;1.00;;;14.46;100.00;98776.59;4787056;29;20298;-72
2024/04/06 01:28:11;;;;;;;4.33;1.23;;;14.50;1.00;;;14.45;100.00;98768.91;4773243;29;20292;-72
2024/04/06 01:30:37;;;;;;;2.43;1.10;;;14.50;1.00;;;14.43;100.00;98768.16;4776431;29;20695;-72
2024/04/06 01:33:05;;;;;;;3.33;1.30;;;14.50;1.00;;;14.39;100.00;98775.34;4787795;29;20238;-72
2024/04/06 01:35:31;;;;;;;2.13;1.10;;;14.50;1.00;;;14.54;100.00;98773.47;4777567;29;20215;-72
2024/04/06 01:37:58;;;;;;;2.87;1.27;;;14.50;1.00;;;14.57;100.00;98781.94;4774590;29;20254;-72
2024/04/06 01:40:24;;;;;;;1.83;1.23;;;14.60;1.00;;;14.51;100.00;98776.31;4780419;29;20700;-72
2024/04/06 01:42:52;;;;;;;4.83;1.20;;;14.40;1.00;;;14.51;100.00;98790.22;4783169;29;20235;-72
2024/04/06 01:45:18;;;;;;;4.97;1.33;;;14.60;1.00;;;14.40;100.00;98789.28;4773231;29;20863;-72
2024/04/06 01:47:45;;;;;;;9.13;1.37;;;14.50;1.00;;;14.27;100.00;98793.66;4776413;29;20219;-72
2024/04/06 01:50:11;;;;;;;1.87;1.20;;;14.40;1.00;;;14.29;100.00;98799.63;4783431;29;20207;-72
2024/04/06 01:52:38;;;;;;;3.30;1.30;;;14.40;1.00;;;14.29;100.00;98804.84;4776744;29;20238;-72
2024/04/06 01:55:06;;;;;;;1.50;1.00;;;14.40;1.00;;;14.33;100.00;98794.06;4782886;29;20234;-72
2024/04/06 01:57:33;;;;;;;2.27;1.17;;;14.40;1.00;;;14.40;100.00;98791.88;4784512;29;20198;-72
2024/04/06 02:00:00;;;;;;;3.50;1.30;;;14.40;1.00;;;14.41;100.00;98791.78;4800258;29;20221;-73
2024/04/06 02:02:27;;;;;;;2.33;1.00;;;14.50;1.00;;;14.46;100.00;98794.91;4777010;29;20752;-72
2024/04/06 02:04:53;;;;;;;2.03;1.10;;;14.50;1.00;;;14.52;100.00;98804.13;4779900;29;20577;-72
2024/04/06 02:07:20;;;;;;;1.77;1.10;;;14.60;1.00;;;14.60;100.00;98801.81;4772656;29;20852;-72
2024/04/06 02:09:46;;;;;;;1.80;1.20;;;14.60;1.00;;;14.58;100.00;98795.88;4781283;29;20707;-72
2024/04/06 02:12:14;;;;;;;1.43;1.10;;;14.60;1.00;;;14.66;100.00;98801.38;4783890;29;20226;-72
2024/04/06 02:14:40;;;;;;;1.50;1.20;;;14.70;1.00;;;14.76;100.00;98797.19;4775238;29;20207;-72
2024/04/06 02:17:08;;;;;;;1.70;1.20;;;14.70;1.00;;;14.68;100.00;98799.50;4781036;29;20224;-72
2024/04/06 02:19:34;;;;;;;4.80;1.30;;;14.80;1.00;;;14.64;100.00;98794.59;4779383;29;20219;-72
2024/04/06 02:22:01;;;;;;;4.50;1.40;;;14.70;1.00;;;14.58;100.00;98795.88;4776936;29;20588;-72
2024/04/06 02:24:27;;;;;;;1.80;1.20;;;14.70;1.00;;;14.61;100.00;98790.41;4778992;29;20600;-72
2024/04/06 02:26:55;;;;;;;1.70;1.30;;;14.70;1.00;;;14.65;100.00;98791.03;4782452;29;20207;-72
2024/04/06 02:29:21;;;;;;;2.77;1.10;;;14.70;1.00;;;14.66;100.00;98785.66;4786647;29;20710;-72
2024/04/06 02:31:48;;;;;;;3.23;1.53;;;14.70;1.00;;;14.62;100.00;98788.63;4802708;29;20211;-72
2024/04/06 02:34:16;;;;;;;3.37;1.40;;;14.70;1.00;;;14.64;100.00;98784.97;4791387;29;20238;-72
2024/04/06 02:36:43;;;;;;;1.87;1.10;;;14.70;1.00;;;14.77;100.00;98785.78;4807486;29;20265;-72
2024/04/06 02:39:10;;;;;;;2.63;1.50;;;14.80;1.00;;;14.76;100.00;98796.34;4779591;29;20277;-73
2024/04/06 02:41:37;;;;;;;2.37;1.30;;;14.80;1.00;;;14.72;100.00;98800.97;4782696;29;20215;-72
2024/04/06 02:44:04;;;;;;;2.40;1.17;;;14.80;1.00;;;14.70;100.00;98796.78;4787527;29;20231;-72
2024/04/06 02:46:31;;;;;;;3.00;1.27;;;14.80;1.00;;;14.74;100.00;98808.69;4778677;29;20208;-72
2024/04/06 02:48:57;;;;;;;2.07;1.10;;;14.80;1.00;;;14.69;100.00;98805.56;4786445;29;20226;-72
2024/04/06 02:51:26;;;;;;;2.20;1.27;;;14.80;1.00;;;14.65;100.00;98798.88;4788031;29;20270;-72
2024/04/06 02:53:52;;;;;;;2.70;1.47;;;14.80;1.00;;;14.62;100.00;98796.47;4788018;29;20231;-72
2024/04/06 02:56:19;;;;;;;5.67;1.50;;;14.70;3.20;;;14.63;100.00;98792.91;4799243;29;20207;-72
2024/04/06 02:58:46;;;;;;;3.97;1.40;;;14.70;10.10;;;14.62;100.00;98799.94;4800874;29;20203;-72
2024/04/06 03:01:13;;;;;;;3.53;1.20;;;14.70;14.50;;;14.63;100.00;98796.38;4775647;29;20214;-72
2024/04/06 03:03:39;;;;;;;3.20;1.40;;;14.70;20.00;;;14.62;100.00;98796.47;4779948;29;20289;-73
2024/04/06 03:06:06;;;;;;;2.23;1.30;;;14.70;16.60;;;14.62;100.00;98804.31;4788064;29;20707;-72
2024/04/06 03:08:34;;;;;;;4.13;1.27;;;14.70;12.40;;;14.62;100.00;98799.94;4782573;29;20277;-72
2024/04/06 03:11:01;;;;;;;2.00;1.10;;;14.70;22.60;;;14.59;100.00;98800.13;4777089;29;20220;-72
2024/04/06 03:13:28;;;;;;;2.63;1.07;;;14.70;18.90;;;14.60;100.00;98796.56;4782741;29;20238;-73
2024/04/06 03:15:55;;;;;;;3.73;1.43;;;14.70;19.90;;;14.56;100.00;98798.56;4783163;29;20210;-72
2024/04/06 03:18:22;;;;;;;2.07;1.23;;;14.70;19.50;;;14.56;100.00;98800.34;4788885;29;20207;-72
2024/04/06 03:20:49;;;;;;;2.00;1.40;;;14.60;26.80;;;14.52;100.00;98798.91;4779559;29;20689;-72
2024/04/06 03:23:15;;;;;;;2.40;1.10;;;14.60;26.20;;;14.47;100.00;98795.75;4812728;29;20735;-72
2024/04/06 03:25:44;;;;;;;1.60;1.27;;;14.60;46.80;;;14.43;100.00;98802.16;4782066;29;20784;-72
2024/04/06 03:28:10;;;;;;;3.10;1.17;;;14.50;49.10;;;14.35;100.00;98802.66;4786382;29;20236;-72
2024/04/06 03:30:37;;;;;;;2.80;1.30;;;14.40;68.70;;;14.29;100.00;98797.84;4792736;29;20260;-73
2024/04/06 03:33:05;;;;;;;1.80;1.30;;;14.40;83.30;;;14.26;100.00;98799.81;4772420;29;20908;-73
2024/04/06 03:35:33;;;;;;;1.97;1.20;;;14.30;96.80;;;14.22;100.00;98804.44;4800245;29;20289;-72
2024/04/06 03:38:00;;;;;;;3.10;1.50;;;14.30;99.90;;;14.24;100.00;98809.56;4774470;29;20210;-72
2024/04/06 03:40:27;;;;;;;2.43;1.20;;;14.30;99.90;;;14.29;100.00;98810.91;4799832;29;20210;-72
2024/04/06 03:42:57;;;;;;;2.00;1.20;;;14.30;99.90;;;14.19;100.00;98808.09;4784183;29;20235;-73
2024/04/06 03:45:25;;;;;;;2.00;1.30;;;14.30;99.90;;;14.10;100.00;98813.97;4774058;29;20211;-72
2024/04/06 03:47:51;;;;;;;3.03;1.50;;;14.20;99.90;;;14.03;100.00;98819.69;4778464;29;20223;-72
2024/04/06 03:50:18;;;;;;;3.53;1.33;;;14.10;99.90;;;13.95;100.00;98819.38;4772556;29;20745;-72
2024/04/06 03:52:46;;;;;;;1.93;1.43;;;14.10;99.90;;;13.90;100.00;98824.88;4782696;29;20223;-72
2024/04/06 03:55:13;;;;;;;4.87;1.60;;;14.00;99.90;;;13.90;100.00;98826.69;4780069;29;20206;-72
2024/04/06 03:57:40;;;;;;;4.07;1.40;;;14.00;99.90;;;13.91;100.00;98820.50;4779959;29;20212;-73
2024/04/06 04:00:14;;;;;;;4.40;1.30;;;14.00;99.90;;;13.88;100.00;98820.72;4780908;29;20582;-72
2024/04/06 04:02:40;;;;;;;3.33;1.03;;;13.90;99.90;;;13.85;100.00;98819.13;4788362;29;20269;-72
2024/04/06 04:05:08;;;;;;;2.17;1.30;;;13.90;99.90;;;13.82;100.00;98816.75;4780370;29;20220;-73
2024/04/06 04:07:35;;;;;;;2.90;1.23;;;13.90;99.90;;;13.83;100.00;98810.56;4779276;29;20582;-72
2024/04/06 04:10:03;;;;;;;3.07;1.17;;;13.90;99.90;;;13.87;100.00;98822.50;4772432;29;20223;-72
2024/04/06 04:12:29;;;;;;;1.90;1.30;;;13.90;99.90;;;13.95;100.00;98829.81;4775243;29;20626;-73
2024/04/06 04:14:59;;;;;;;3.27;1.50;;;14.00;99.90;;;13.95;100.00;98832.44;4782633;29;20226;-72
2024/04/06 04:17:26;;;;;;;1.87;1.40;;;14.00;99.90;;;13.92;100.00;98836.09;4778626;29;20228;-72
2024/04/06 04:19:53;;;;;;;2.70;1.33;;;14.00;99.90;;;13.97;100.00;98831.38;4781065;29;20730;-72
2024/04/06 04:22:22;;;;;;;2.90;1.30;;;14.00;99.90;;;13.94;100.00;98828.16;4784559;29;20301;-72
2024/04/06 04:24:49;;;;;;;2.40;1.20;;;14.00;99.90;;;13.98;100.00;98830.44;4795794;29;20212;-73
2024/04/06 04:27:16;;;;;;;2.50;1.40;;;14.10;99.90;;;14.01;100.00;98832.03;4781548;29;20215;-73
2024/04/06 04:29:43;;;;;;;1.60;1.30;;;14.10;99.90;;;14.02;100.00;98825.84;4782063;29;20234;-73
2024/04/06 04:32:10;;;;;;;1.90;1.20;;;14.10;99.90;;;14.04;100.00;98837.03;4774310;29;20211;-73
2024/04/06 04:34:38;;;;;;;3.60;1.10;;;14.10;99.90;;;14.01;100.00;98832.88;4779813;29;20255;-72
2024/04/06 04:37:05;;;;;;;3.17;1.50;;;14.10;99.90;;;14.03;100.00;98828.38;4793946;29;20219;-73
2024/04/06 04:39:33;;;;;;;3.83;1.20;;;14.10;99.90;;;14.05;100.00;98831.69;4777614;29;20207;-73
2024/04/06 04:41:59;;;;;;;3.27;1.00;;;14.10;99.90;;;14.02;100.00;98831.94;4774171;29;20208;-71
2024/04/06 04:44:26;;;;;;;3.23;1.50;;;14.20;99.90;;;14.00;100.00;98833.81;4778823;29;20207;-71
2024/04/06 04:46:52;;;;;;;2.63;1.17;;;14.10;99.90;;;14.00;100.00;98836.41;4777177;29;20196;-73
2024/04/06 04:49:19;;;;;;;2.93;1.40;;;14.10;99.90;;;13.98;100.00;98840.06;4779406;29;20228;-73
2024/04/06 04:51:47;;;;;;;3.13;1.23;;;14.10;99.90;;;13.94;100.00;98839.44;4781024;29;20207;-71
2024/04/06 04:54:15;;;;;;;1.63;1.30;;;14.10;99.90;;;13.92;100.00;98849.16;4776487;29;20278;-71
2024/04/06 04:56:41;;;;;;;5.73;1.33;;;14.10;99.90;;;13.85;100.00;98850.50;4778921;29;20677;-71
2024/04/06 04:59:08;;;;;;;3.40;1.40;;;14.00;99.90;;;13.83;100.00;98859.38;4779929;29;20207;-70
2024/04/06 05:01:34;;;;;;;2.03;1.00;;;14.00;99.90;;;13.88;100.00;98857.31;4781670;29;20612;-71
2024/04/06 05:04:01;;;;;;;1.80;1.33;;;14.00;99.90;;;13.92;100.00;98858.75;4776988;29;20231;-71
2024/04/06 05:06:27;;;;;;;2.47;1.10;;;14.00;99.90;;;13.94;100.00;98849.91;4776768;29;20203;-70
2024/04/06 05:08:57;;;;;;;3.27;1.40;;;14.00;99.90;;;14.01;100.00;98855.53;4776776;29;20239;-71
2024/04/06 05:11:24;;;;;;;1.73;1.10;;;14.10;99.90;;;14.07;100.00;98852.53;4788447;29;20203;-70
2024/04/06 05:13:51;;;;;;;1.60;1.13;;;14.10;99.90;;;14.14;100.00;98857.25;4777957;29;20238;-71
2024/04/06 05:16:17;;;;;;;2.37;1.23;;;14.20;99.90;;;14.21;100.00;98855.03;4778499;29;20594;-71
2024/04/06 05:18:44;;;;;;;3.20;1.00;;;14.20;99.90;;;14.37;100.00;98860.09;4784767;29;20223;-71
2024/04/06 05:21:10;;;;;;;3.50;1.30;;;14.40;99.90;;;14.59;100.00;98865.53;4775360;29;20211;-72
2024/04/06 05:23:37;;;;;;;1.53;1.00;;;14.50;99.90;;;14.89;100.00;98859.97;4788940;29;20230;-71
2024/04/06 05:26:05;;;;;;;3.03;1.30;;;14.80;99.90;;;15.30;100.00;98850.00;4779096;29;20216;-71
2024/04/06 05:28:32;;;;;;;1.23;0.80;;;15.20;63.60;;;15.67;100.00;98857.84;4775794;29;20292;-72
2024/04/06 05:30:58;;;;;;;1.97;0.97;;;15.60;1.00;;;16.05;100.00;98857.59;4775430;29;20206;-71
2024/04/06 05:33:25;;;;;;;1.87;1.13;;;16.10;1.00;;;16.18;100.00;98862.78;4781568;29;20234;-71
2024/04/06 05:35:52;;;;;;;2.17;1.10;;;16.40;1.00;;;16.44;100.00;98861.66;4775033;29;20215;-72
2024/04/06 05:38:21;;;;;;;1.90;1.00;;;16.60;1.00;;;16.58;100.00;98855.34;4775463;29;20220;-71
2024/04/06 05:40:52;;;;;;;2.47;0.90;;;16.70;1.00;;;16.69;100.00;98844.88;4785571;29;20218;-72
2024/04/06 05:43:19;;;;;;;1.67;1.00;;;17.00;1.00;;;16.72;100.00;98850.72;4780948;29;20227;-71
2024/04/06 05:45:46;;;;;;;2.93;0.83;;;17.10;1.00;;;16.85;100.00;98850.59;4774331;29;20212;-71
2024/04/06 05:48:12;;;;;;;1.40;1.00;;;17.20;1.00;;;17.37;100.00;98857.78;4782823;29;20218;-71
2024/04/06 05:50:41;;;;;;;2.67;1.20;;;17.60;99.90;;;18.06;95.34;98855.63;4796729;29;20617;-71
2024/04/06 05:53:07;;;;;;;2.47;1.20;;;18.30;1.00;;;19.13;85.17;98860.50;4784348;29;20606;-73
2024/04/06 05:55:34;;;;;;;5.40;1.23;;;19.30;99.90;;;19.36;80.12;98861.94;4788090;29;20708;-71
2024/04/06 05:58:00;;;;;;;1.90;0.83;;;19.90;1.00;;;19.82;77.11;98873.69;4776237;29;20227;-71
2024/04/06 06:00:29;;;;;;;3.30;1.00;;;20.40;99.90;;;19.70;75.50;98866.91;4771376;29;20215;-71
2024/04/06 06:02:56;;;;;;;1.63;0.87;;;20.50;1.00;;;19.50;75.26;98856.31;4779494;29;20235;-72
2024/04/06 06:05:23;;;;;;;1.57;0.90;;;20.20;1.00;;;18.71;80.35;98865.91;4780177;29;20214;-71
2024/04/06 06:07:49;;;;;;;2.17;0.90;;;19.40;1.00;;;18.35;83.05;98861.94;4772245;29;20790;-71
2024/04/06 06:10:18;;;;;;;1.67;0.87;;;19.00;1.00;;;17.80;87.90;98864.84;4780003;29;20256;-71
2024/04/06 06:12:44;;;;;;;1.97;1.00;;;18.50;99.90;;;17.46;92.44;98853.59;4782870;29;20267;-71
2024/04/06 06:15:11;;;;;;;2.27;0.70;;;18.00;1.00;;;17.23;95.49;98843.13;4780940;29;20621;-71
2024/04/06 06:17:40;;;;;;;2.13;1.23;;;17.60;1.00;;;17.61;96.20;98836.63;4778960;29;20207;-71
2024/04/06 06:20:08;;;;;;;1.90;1.10;;;17.60;49.30;;;18.22;89.86;98826.25;4775485;29;20748;-72
2024/04/06 06:22:34;;;;;;;1.73;0.83;;;18.10;99.90;;;18.32;87.30;98827.16;4781188;29;20238;-71
2024/04/06 06:25:02;;;;;;;1.57;0.60;;;18.50;99.90;;;18.15;88.51;98830.38;4780636;29;20214;-71
2024/04/06 06:27:28;;;;;;;3.00;0.93;;;18.40;99.90;;;17.91;90.67;98831.44;4783019;29;20263;-72
2024/04/06 06:29:55;;;;;;;1.97;0.80;;;18.20;1.00;;;17.65;93.71;98833.59;4773675;29;20791;-71
2024/04/06 06:32:23;;;;;;;2.63;1.00;;;18.00;99.90;;;17.60;95.67;98848.06;4775696;29;20223;-71
2024/04/06 06:34:51;;;;;;;2.83;1.07;;;17.80;1.00;;;17.67;95.69;98836.09;4780897;29;20214;-71
2024/04/06 06:37:17;;;;;;;2.83;0.80;;;17.80;1.00;;;17.70;95.65;98844.56;4782264;29;20236;-71
2024/04/06 06:39:45;;;;;;;1.20;0.80;;;17.90;1.00;;;17.60;96.20;98833.13;4795071;29;20202;-71
2024/04/06 06:42:12;;;;;;;3.53;1.00;;;17.80;1.00;;;17.57;97.70;98837.78;4782851;29;20599;-71
2024/04/06 06:44:39;;;;;;;1.53;0.90;;;17.80;1.00;;;17.56;98.73;98844.00;4793905;29;20207;-71
2024/04/06 06:47:05;;;;;;;2.30;0.80;;;17.70;99.90;;;17.41;99.42;98847.88;4774722;29;20232;-71
2024/04/06 06:49:33;;;;;;;3.00;0.87;;;17.60;99.90;;;17.46;100.00;98850.97;4776913;29;20223;-71
2024/04/06 06:52:00;;;;;;;3.50;1.20;;;17.60;99.90;;;17.31;100.00;98843.34;4782809;29;20211;-71
2024/04/06 06:54:27;;;;;;;1.80;1.30;;;17.50;99.90;;;17.14;100.00;98849.13;4778592;29;20211;-71
2024/04/06 06:56:54;;;;;;;1.47;1.07;;;17.40;99.90;;;17.09;100.00;98847.81;4782368;29;20237;-71
2024/04/06 06:59:21;;;;;;;2.00;0.80;;;17.30;99.90;;;17.08;100.00;98851.41;4776455;29;20203;-71
2024/04/06 07:01:47;;;;;;;2.07;0.90;;;17.20;1.00;;;17.13;100.00;98852.72;4782067;29;20679;-71
2024/04/06 07:04:17;;;;;;;1.37;0.80;;;17.20;1.00;;;17.17;100.00;98843.63;4792256;29;20231;-71
2024/04/06 07:06:43;;;;;;;1.50;0.90;;;17.30;1.00;;;17.51;100.00;98849.63;4779554;29;20698;-71
2024/04/06 07:09:11;;;;;;;2.17;0.80;;;17.40;1.00;;;18.24;100.00;98845.38;4777257;29;20223;-71
2024/04/06 07:11:37;;;;;;;0.90;0.70;;;18.00;99.90;;;18.39;94.97;98852.00;4767535;29;20211;-71
2024/04/06 07:14:04;;;;;;;2.63;0.70;;;18.40;1.00;;;18.71;92.05;98838.72;4774071;29;20818;-71
2024/04/06 07:16:31;;;;;;;1.27;0.70;;;18.80;99.90;;;19.04;88.97;98841.06;4778590;29;20268;-71
2024/04/06 07:18:58;;;;;;;1.20;0.67;;;19.20;99.90;;;19.67;83.95;98834.53;4799365;29;20230;-71
2024/04/06 07:21:25;;;;;;;1.43;0.70;;;19.70;99.90;;;20.11;79.84;98842.03;4771093;29;20220;-71
2024/04/06 07:23:53;;;;;;;1.20;0.80;;;20.20;99.90;;;20.38;77.79;98842.13;4782729;29;20231;-71
2024/04/06 07:26:21;;;;;;;1.77;0.63;;;20.60;99.90;;;20.49;76.46;98854.31;4767589;29;20208;-73
2024/04/06 07:28:48;;;;;;;1.13;0.90;;;20.80;99.90;;;20.75;75.16;98852.72;4781528;29;20801;-73
2024/04/06 07:31:14;;;;;;;1.00;0.70;;;21.00;1.00;;;21.16;71.43;98856.72;4779251;29;20211;-73
2024/04/06 07:33:41;;;;;;;3.03;0.67;;;21.40;99.90;;;21.47;69.79;98854.59;4779911;29;20751;-73
2024/04/06 07:36:08;;;;;;;1.60;0.73;;;21.70;99.90;;;21.37;68.81;98853.81;4792337;29;20269;-73
2024/04/06 07:38:35;;;;;;;2.27;0.80;;;21.90;1.00;;;21.11;69.36;98854.50;4777611;29;20245;-73
2024/04/06 07:41:03;;;;;;;1.60;0.67;;;21.80;1.00;;;21.61;68.47;98854.91;4770376;29;20356;-73
2024/04/06 07:43:31;;;;;;;2.60;0.80;;;21.80;1.00;;;21.76;66.12;98847.28;4776189;29;20236;-73
2024/04/06 07:45:57;;;;;;;1.53;0.80;;;22.10;1.00;;;21.97;65.31;98852.31;4781681;29;20210;-73
2024/04/06 07:48:25;;;;;;;1.93;0.70;;;22.30;1.00;;;22.20;63.41;98855.28;4778772;29;20259;-72
2024/04/06 07:50:51;;;;;;;1.87;0.60;;;22.50;1.00;;;22.67;60.58;98853.13;4777364;29;20209;-73
2024/04/06 07:53:18;;;;;;;3.10;1.53;;;22.80;99.90;;;22.50;60.92;98859.28;4787817;29;20233;-73
2024/04/06 07:55:46;;;;;;;2.60;2.00;;;22.90;99.90;;;21.85;63.70;98848.19;4775659;29;20207;-72
2024/04/06 07:58:13;;;;;;;3.23;1.43;;;22.60;99.90;;;21.60;65.37;98858.53;4795654;29;20217;-72
2024/04/06 08:00:41;;;;;;;2.03;1.60;;;22.10;1.00;;;21.23;68.34;98850.69;4772529;29;20201;-72
2024/04/06 08:03:08;;;;;;;2.67;1.47;;;21.70;1.00;;;21.87;67.01;98847.03;4776061;29;20240;-72
2024/04/06 08:05:35;;;;;;;3.37;2.00;;;21.80;1.00;;;22.34;63.63;98838.81;4776191;29;20216;-72
2024/04/06 08:08:02;;;;;;;2.43;1.30;;;22.30;1.00;;;22.25;62.99;98834.47;4775831;29;20221;-72
2024/04/06 08:10:28;;;;;;;3.07;1.40;;;22.50;1.00;;;22.64;61.91;98843.66;4777302;29;20230;-73
2024/04/06 08:12:55;;;;;;;2.03;1.30;;;22.70;1.00;;;22.70;61.53;98834.22;4778312;29;20230;-72
2024/04/06 08:15:22;;;;;;;2.03;0.80;;;23.00;99.90;;;23.59;58.65;98831.94;4774641;29;20218;-72
2024/04/06 08:17:52;;;;;;;2.57;1.20;;;23.50;99.90;;;23.35;56.13;98839.84;4781894;29;20203;-72
2024/04/06 08:20:19;;;;;;;1.53;1.13;;;23.60;99.90;;;23.13;55.93;98843.91;4778940;29;20219;-72
2024/04/06 08:22:46;;;;;;;2.43;1.30;;;23.60;99.90;;;23.28;56.21;98842.31;4781228;29;20242;-73
2024/04/06 08:25:13;;;;;;;2.87;1.90;;;23.60;99.90;;;23.69;54.38;98829.13;4781847;29;20260;-73
2024/04/06 08:27:41;;;;;;;1.57;1.10;;;23.80;99.90;;;23.75;53.35;98825.81;4779242;29;20856;-73
2024/04/06 08:30:11;;;;;;;2.00;0.97;;;24.00;99.90;;;23.71;54.46;98829.81;4775523;29;20239;-73
2024/04/06 08:32:40;;;;;;;2.73;1.00;;;24.00;99.90;;;24.32;52.29;98837.28;4784023;29;20230;-73
2024/04/06 08:35:11;;;;;;;1.97;1.00;;;24.40;78.10;;;24.48;50.75;98837.25;4786246;29;20315;-73
2024/04/06 08:37:39;;;;;;;2.97;1.17;;;24.70;21.60;;;24.20;50.62;98836.78;4785503;29;20211;-73
2024/04/06 08:40:08;;;;;;;2.53;0.93;;;24.60;1.00;;;24.34;50.80;98828.13;4805621;29;20217;-73
2024/04/06 08:42:41;;;;;;;1.77;1.10;;;24.50;1.00;;;24.53;50.52;98828.78;4777600;29;20238;-73
2024/04/06 08:45:08;;;;;;;3.53;2.93;;;24.70;1.00;;;25.43;47.92;98830.09;4803510;29;20706;-73
2024/04/06 08:47:35;;;;;;;2.50;1.03;;;25.20;1.00;;;25.43;46.10;98819.44;4779955;29;20214;-73
2024/04/06 08:50:08;;;;;;;2.80;1.20;;;25.80;1.00;;;25.34;45.49;98836.47;4774257;29;20762;-73
2024/04/06 08:52:36;;;;;;;1.30;1.00;;;25.90;1.00;;;25.82;46.05;98825.53;4785811;29;20707;-73
2024/04/06 08:55:04;;;;;;;2.40;1.27;;;25.90;1.00;;;26.32;44.35;98825.97;4784292;29;20226;-73
2024/04/06 08:57:34;;;;;;;2.30;1.37;;;26.30;1.00;;;25.80;44.18;98832.84;4787319;29;20203;-73
2024/04/06 09:00:06;;;;;;;1.87;1.07;;;26.30;1.00;;;25.66;44.83;98828.28;4780445;29;20207;-74
2024/04/06 09:02:34;;;;;;;2.97;1.40;;;26.20;1.00;;;25.33;46.05;98835.63;4793692;29;20238;-73
2024/04/06 09:05:01;;;;;;;4.43;1.50;;;25.80;1.00;;;25.50;45.52;98831.06;4776914;29;20275;-73
2024/04/06 09:07:29;;;;;;;1.67;1.07;;;25.70;1.00;;;25.33;45.38;98835.63;4781137;29;20219;-73
2024/04/06 09:09:56;;;;;;;1.57;0.90;;;25.70;1.00;;;24.82;46.20;98842.34;4780263;29;20226;-73
2024/04/06 09:12:23;;;;;;;2.30;1.20;;;25.40;1.00;;;24.80;47.19;98839.00;4798958;29;20235;-73
2024/04/06 09:14:51;;;;;;;1.80;0.90;;;25.10;1.00;;;25.04;46.71;98841.59;4781437;29;20208;-73
2024/04/06 09:17:19;;;;;;;2.57;1.00;;;25.20;1.00;;;25.77;45.06;98833.22;4775560;29;20272;-73
2024/04/06 09:19:46;;;;;;;1.90;1.17;;;25.60;1.00;;;26.25;43.84;98833.84;4784440;29;20268;-73
2024/04/06 09:22:13;;;;;;;1.77;1.13;;;26.10;1.00;;;26.31;43.23;98840.28;4778124;29;20219;-73
2024/04/06 09:24:40;;;;;;;1.57;1.13;;;26.40;1.00;;;26.25;43.86;98828.53;4782207;29;20700;-73
2024/04/06 09:27:09;;;;;;;2.97;1.17;;;26.50;1.00;;;26.52;43.32;98835.91;4808913;29;20219;-73
2024/04/06 09:29:36;;;;;;;1.97;1.13;;;26.60;1.00;;;26.33;44.20;98833.78;4776831;29;20608;-73
2024/04/06 09:32:10;;;;;;;4.60;2.30;;;26.50;1.00;;;26.45;43.76;98837.66;4769249;29;20215;-73
2024/04/06 09:34:45;;;;;;;1.97;1.63;;;26.60;1.00;;;26.65;43.13;98838.78;4785572;29;20211;-73
2024/04/06 09:37:14;;;;;;;1.17;0.90;;;26.70;1.00;;;26.90;43.13;98835.88;4767297;29;20212;-74
2024/04/06 09:39:41;;;;;;;1.60;1.07;;;26.90;1.00;;;27.14;41.81;98832.88;4786403;29;20216;-73
2024/04/06 09:42:10;;;;;;;1.13;1.03;;;27.20;1.00;;;27.17;42.04;98845.88;4784565;29;20728;-73
2024/04/06 09:44:36;;;;;;;2.20;1.00;;;27.30;1.00;;;27.23;40.66;98837.09;4788300;29;20215;-73
2024/04/06 09:47:06;;;;;;;1.63;1.03;;;27.40;1.00;;;27.31;41.09;98842.34;4802639;29;20219;-73
2024/04/06 09:49:34;;;;;;;2.03;1.10;;;27.20;1.00;;;27.59;40.09;98838.97;4779705;29;20242;-73
2024/04/06 09:52:03;;;;;;;1.73;1.07;;;27.50;1.00;;;27.56;42.46;98823.31;4786792;29;20672;-73
2024/04/06 09:54:29;;;;;;;3.50;1.30;;;27.60;1.00;;;27.83;40.88;98822.56;4775109;29;20214;-73
2024/04/06 09:56:58;;;;;;;1.50;0.87;;;28.00;1.00;;;28.16;39.70;98826.38;4779058;29;20227;-73
2024/04/06 09:59:28;;;;;;;3.73;1.20;;;28.20;1.00;;;28.06;39.88;98822.34;4776725;29;20219;-73
2024/04/06 10:01:57;;;;;;;2.40;1.13;;;28.40;1.00;;;28.50;38.79;98827.44;4778071;29;20227;-73
2024/04/06 10:04:24;;;;;;;3.73;1.10;;;28.50;1.00;;;28.81;38.16;98832.41;4783618;29;20640;-73
2024/04/06 10:06:54;;;;;;;8.73;1.50;;;28.80;1.00;;;29.38;36.14;98823.19;4785035;29;20239;-73
2024/04/06 10:09:20;;;;;;;3.10;1.20;;;29.30;1.00;;;29.25;36.38;98823.94;4783992;29;20589;-74
2024/04/06 10:11:57;;;;;;;1.77;1.10;;;29.40;1.00;;;29.64;35.20;98816.03;4790714;29;20394;-73
2024/04/06 10:14:26;;;;;;;2.13;1.30;;;29.60;1.00;;;29.19;36.07;98824.72;4799246;29;20241;-73
2024/04/06 10:17:05;;;;;;;1.70;1.17;;;29.40;1.00;;;28.65;35.17;98819.28;4774468;29;20215;-73
2024/04/06 10:19:31;;;;;;;3.60;1.30;;;29.50;1.00;;;27.68;37.56;98813.78;4788341;29;20700;-73
2024/04/06 10:22:04;;;;;;;3.63;1.33;;;28.50;1.00;;;26.98;37.81;98814.41;4781007;29;20737;-73